Time;durP1;ratioP1;P1;durP2;ratioP2;P2;SDS_P1;SDS_P2;PMS_P1;PMS_P2;Temp;Humidity;BMP_temperature;BMP_pressure;BME280_temperature;BME280_humidity;BME280_pressure;Samples;Min_cycle;Max_cycle;Signal;HPM_P1;HPM_P2
2022/01/20 00:01:06;;;;;;;1999.90;999.90;;;;;;;1.32;98.89;162750.69;4968903;28;20047;-68
2022/01/20 00:03:35;;;;;;;1999.90;999.90;;;;;;;1.38;98.70;162765.75;4968837;28;20106;-68
2022/01/20 00:27:55;;;;;;;1999.90;999.90;;;;;;;1.42;99.32;162775.38;4969236;28;20058;-68
2022/01/20 00:38:24;;;;;;;1999.90;999.90;;;;;;;1.72;97.44;162856.09;4967756;28;20141;-69
2022/01/20 00:40:52;;;;;;;1999.90;999.90;;;;;;;1.98;96.96;162924.53;4966408;28;20121;-68
2022/01/20 00:43:18;;;;;;;1999.90;999.90;;;;;;;2.02;96.96;162935.50;4967851;28;20379;-68
2022/01/20 00:45:47;;;;;;;1999.90;999.90;;;;;;;1.97;95.25;162923.19;4969157;28;20069;-69
2022/01/20 00:48:18;;;;;;;1999.90;999.90;;;;;;;1.92;96.41;162909.47;4966861;28;20174;-69
2022/01/20 00:50:44;;;;;;;1999.90;999.90;;;;;;;2.22;95.87;162990.28;4966250;28;20514;-68
2022/01/20 00:53:11;;;;;;;1999.90;999.90;;;;;;;2.53;94.63;163071.06;4969284;28;20079;-68
2022/01/20 00:55:39;;;;;;;1999.90;999.90;;;;;;;2.50;94.41;163064.25;4967049;28;20282;-68
2022/01/20 00:58:06;;;;;;;1999.90;999.90;;;;;;;2.29;94.50;163008.06;4971926;28;20391;-68
2022/01/20 01:00:33;;;;;;;1999.90;999.90;;;;;;;2.26;94.90;162999.84;4968226;28;20051;-68
2022/01/20 01:03:00;;;;;;;1999.90;999.90;;;;;;;1.89;96.73;162901.25;4966514;28;20133;-68
2022/01/20 01:05:27;;;;;;;1999.90;999.90;;;;;;;2.01;96.85;162934.16;4970204;28;20368;-68
2022/01/20 01:07:56;;;;;;;1999.90;999.90;;;;;;;2.00;96.74;162930.06;4971623;28;20054;-68
2022/01/20 01:10:27;;;;;;;1999.90;999.90;;;;;;;1.95;96.49;162917.72;4969647;28;20050;-68
2022/01/20 01:13:03;;;;;;;1999.90;999.90;;;;;;;1.96;96.23;162920.44;4970290;28;20094;-68
2022/01/20 01:15:36;;;;;;;1999.90;999.90;;;;;;;1.91;96.71;162906.78;4980067;28;20078;-68
2022/01/20 01:21:12;;;;;;;1999.90;999.90;;;;;;;2.13;95.45;162964.25;4969840;28;20499;-67
2022/01/20 01:23:41;;;;;;;1999.90;999.90;;;;;;;2.56;93.66;163079.28;4970504;28;20093;-67
2022/01/20 01:26:14;;;;;;;1999.90;999.90;;;;;;;2.57;93.57;163082.03;4971782;28;20058;-67
2022/01/20 01:28:41;;;;;;;1999.90;999.90;;;;;;;2.47;94.05;163056.00;4969710;28;20082;-67
2022/01/20 01:34:04;;;;;;;1999.90;999.90;;;;;;;2.35;94.01;163023.13;4971296;28;20074;-67
2022/01/20 01:36:46;;;;;;;1999.90;999.90;;;;;;;2.24;94.48;162995.75;4971598;28;20098;-67
2022/01/20 01:39:12;;;;;;;1999.90;999.90;;;;;;;2.31;94.33;163013.56;4967791;28;20047;-67
2022/01/20 01:41:39;;;;;;;1999.90;999.90;;;;;;;2.32;93.89;163014.91;4970402;28;20399;-67
2022/01/20 01:44:09;;;;;;;1999.90;999.90;;;;;;;2.13;94.68;162965.66;4970567;28;20102;-67
2022/01/20 01:46:37;;;;;;;1999.90;999.90;;;;;;;2.20;94.31;162983.41;4969361;28;20043;-67
2022/01/20 01:49:05;;;;;;;1999.90;999.90;;;;;;;2.09;94.65;162954.69;4970395;28;20051;-68
2022/01/20 01:51:31;;;;;;;1999.90;999.90;;;;;;;2.02;95.32;162936.84;4971114;28;20363;-68
2022/01/20 01:53:58;;;;;;;1999.90;999.90;;;;;;;1.98;95.66;162925.94;4970237;28;20129;-68
2022/01/20 01:56:24;;;;;;;1999.90;999.90;;;;;;;1.74;96.41;162862.97;4973013;28;20050;-68
2022/01/20 01:58:51;;;;;;;1999.90;999.90;;;;;;;1.70;96.74;162850.66;4971458;28;20062;-68
2022/01/20 02:01:17;;;;;;;1999.90;999.90;;;;;;;1.69;96.96;162847.91;4970483;28;20078;-68
2022/01/20 02:03:46;;;;;;;1999.90;999.90;;;;;;;1.63;96.89;162832.81;4959754;28;20308;-68
2022/01/20 02:09:24;;;;;;;1999.90;999.90;;;;;;;1.44;98.22;162780.81;4970932;28;20333;-68
2022/01/20 02:19:58;;;;;;;1999.90;999.90;;;;;;;1.51;98.56;162800.00;4970855;28;20467;-69
2022/01/20 02:22:25;;;;;;;1999.90;999.90;;;;;;;1.65;98.25;162838.28;4970271;28;20038;-68
2022/01/20 02:24:51;;;;;;;1999.90;999.90;;;;;;;1.89;96.91;162902.66;4970828;28;20452;-68
2022/01/20 02:27:18;;;;;;;1999.90;999.90;;;;;;;1.81;97.39;162879.38;4969372;28;20478;-68
2022/01/20 02:29:45;;;;;;;1999.90;999.90;;;;;;;1.69;97.92;162849.25;4969985;28;20148;-68
2022/01/20 02:32:12;;;;;;;1999.90;999.90;;;;;;;1.46;98.84;162786.28;4971050;28;20132;-67
2022/01/20 02:34:39;;;;;;;1999.90;999.90;;;;;;;1.63;99.07;162832.81;4970678;28;20075;-68
2022/01/20 02:37:10;;;;;;;1999.90;999.90;;;;;;;1.47;99.13;162789.03;4969460;28;20082;-69
2022/01/20 02:44:57;;;;;;;1999.90;999.90;;;;;;;1.99;97.37;162928.66;4969442;28;20337;-68
2022/01/20 02:47:28;;;;;;;1999.90;999.90;;;;;;;1.86;97.80;162894.47;4970114;28;20125;-68
2022/01/20 02:49:55;;;;;;;1999.90;999.90;;;;;;;1.96;97.64;162920.44;4969688;28;20105;-68
2022/01/20 02:52:25;;;;;;;1999.90;999.90;;;;;;;2.07;97.22;162949.19;4968919;28;20055;-68
2022/01/20 02:54:54;;;;;;;1999.90;999.90;;;;;;;1.85;98.74;162890.34;4972621;28;20090;-68
2022/01/20 02:57:20;;;;;;;1999.90;999.90;;;;;;;1.63;99.25;162831.47;4974503;28;20111;-68
2022/01/20 02:59:47;;;;;;;1999.90;999.90;;;;;;;1.50;99.18;162797.25;4969670;28;20090;-69
2022/01/20 03:02:13;;;;;;;1999.90;999.90;;;;;;;1.52;100.00;162802.69;4970362;28;20038;-69
2022/01/20 03:04:40;;;;;;;1999.90;999.90;;;;;;;1.45;100.00;162784.94;4975721;28;20088;-68
2022/01/20 03:07:10;;;;;;;1999.90;999.90;;;;;;;1.79;99.00;162873.88;4969554;28;20050;-68
2022/01/20 03:09:36;;;;;;;1999.90;999.90;;;;;;;1.59;100.00;162821.88;4970260;28;20090;-68
2022/01/20 03:12:03;;;;;;;1999.90;999.90;;;;;;;1.71;100.00;162854.75;4970540;28;20109;-68
2022/01/20 03:14:30;;;;;;;1999.90;999.90;;;;;;;1.35;100.00;162758.91;4970055;28;20086;-68
2022/01/20 03:16:57;;;;;;;1999.90;999.90;;;;;;;1.51;100.00;162800.00;4969691;28;20090;-68
2022/01/20 03:19:25;;;;;;;1999.90;999.90;;;;;;;1.50;100.00;162798.59;4970277;28;20090;-68
2022/01/20 03:21:51;;;;;;;1999.90;999.90;;;;;;;1.58;100.00;162820.50;4969757;28;20086;-68
2022/01/20 03:24:18;;;;;;;1999.90;999.90;;;;;;;1.70;100.00;162852.00;4968912;28;20102;-67
2022/01/20 03:26:44;;;;;;;1999.90;999.90;;;;;;;1.79;100.00;162875.28;4967871;28;20396;-68
2022/01/20 03:29:12;;;;;;;1999.90;999.90;;;;;;;1.72;100.00;162856.09;4969262;28;20054;-68
2022/01/20 03:31:39;;;;;;;1999.90;999.90;;;;;;;1.60;100.00;162824.63;4968680;28;20043;-68
2022/01/20 03:34:06;;;;;;;1999.90;999.90;;;;;;;1.51;100.00;162800.00;4969957;28;20125;-67
2022/01/20 03:36:33;;;;;;;1999.90;999.90;;;;;;;1.52;100.00;162804.09;4970010;28;20106;-68
2022/01/20 03:39:00;;;;;;;1999.90;999.90;;;;;;;1.82;100.00;162882.13;4968712;28;20101;-68
2022/01/20 03:41:27;;;;;;;1999.90;999.90;;;;;;;1.64;100.00;162835.59;4969430;28;20046;-67
2022/01/20 03:43:54;;;;;;;1999.90;999.90;;;;;;;1.72;100.00;162857.47;4970070;28;20078;-68
2022/01/20 03:46:20;;;;;;;1999.90;999.90;;;;;;;1.61;100.00;162825.97;4968599;28;20466;-67
2022/01/20 03:48:52;;;;;;;1999.90;999.90;;;;;;;1.88;100.00;162898.56;4968645;28;20577;-68
2022/01/20 03:51:21;;;;;;;1999.90;999.90;;;;;;;1.94;100.00;162914.97;4968987;28;20098;-68
2022/01/20 03:53:51;;;;;;;1999.90;999.90;;;;;;;1.85;100.00;162890.34;4970441;28;20070;-68
2022/01/20 03:56:19;;;;;;;1999.90;999.90;;;;;;;1.81;100.00;162879.38;4968689;28;20435;-68
2022/01/20 03:58:46;;;;;;;1999.90;999.90;;;;;;;1.70;100.00;162852.00;4969385;28;20079;-68
2022/01/20 04:01:14;;;;;;;1999.90;999.90;;;;;;;2.17;99.83;162975.22;4967744;28;20074;-68
2022/01/20 04:03:42;;;;;;;1999.90;999.90;;;;;;;2.00;100.00;162930.06;4966407;28;20050;-68
2022/01/20 04:06:08;;;;;;;1999.90;999.90;;;;;;;1.98;100.00;162925.94;4969035;28;20082;-68
2022/01/20 04:08:41;;;;;;;1999.90;999.90;;;;;;;1.94;100.00;162914.97;4973965;28;20442;-68
2022/01/20 04:11:10;;;;;;;1999.90;999.90;;;;;;;1.88;100.00;162899.91;4970637;28;20259;-68
2022/01/20 04:13:36;;;;;;;1999.90;999.90;;;;;;;1.73;100.00;162860.22;4967451;28;20402;-68
2022/01/20 04:16:13;;;;;;;1999.90;999.90;;;;;;;1.98;100.00;162925.94;4967753;28;20078;-68
2022/01/20 04:18:56;;;;;;;1999.90;999.90;;;;;;;1.62;100.00;162830.06;4967207;28;20063;-68
2022/01/20 04:21:25;;;;;;;1999.90;999.90;;;;;;;1.91;100.00;162906.78;4968111;28;20066;-68
2022/01/20 04:23:52;;;;;;;1999.90;999.90;;;;;;;1.94;99.89;162914.97;4968513;28;20069;-68
2022/01/20 04:26:19;;;;;;;1999.90;999.90;;;;;;;1.88;100.00;162899.91;4968344;28;20055;-67
2022/01/20 04:28:45;;;;;;;1999.90;999.90;;;;;;;1.88;100.00;162899.91;4968630;28;20102;-67
2022/01/20 04:31:16;;;;;;;1999.90;999.90;;;;;;;2.19;99.43;162980.66;4967891;28;20050;-68
2022/01/20 04:33:44;;;;;;;1999.90;999.90;;;;;;;2.07;99.23;162949.19;4963385;28;20045;-68
2022/01/20 04:36:11;;;;;;;1999.90;999.90;;;;;;;1.82;100.00;162882.13;4968422;28;20080;-68
2022/01/20 04:38:37;;;;;;;1999.90;999.90;;;;;;;2.05;99.78;162943.72;4968836;28;20061;-67
2022/01/20 04:41:04;;;;;;;1999.90;999.90;;;;;;;2.14;99.78;162967.00;4970805;28;20086;-68
2022/01/20 04:43:31;;;;;;;1999.90;999.90;;;;;;;2.33;98.86;163019.03;4971352;28;20072;-67
2022/01/20 04:46:06;;;;;;;1999.90;999.90;;;;;;;2.23;98.96;162991.63;4971808;28;20367;-67
2022/01/20 04:59:28;;;;;;;1999.90;999.90;;;;;;;1.82;100.00;162882.13;4971304;28;20071;-68
2022/01/20 05:01:54;;;;;;;1999.90;999.90;;;;;;;1.96;100.00;162919.09;4967155;28;20090;-67
2022/01/20 05:04:23;;;;;;;1999.90;999.90;;;;;;;1.99;100.00;162927.28;4970702;28;20051;-68
2022/01/20 05:06:52;;;;;;;1999.90;999.90;;;;;;;1.98;100.00;162925.94;4972193;28;20054;-68
2022/01/20 05:09:20;;;;;;;1999.90;999.90;;;;;;;1.99;100.00;162928.66;4971654;28;20047;-67
2022/01/20 05:11:52;;;;;;;1999.90;999.90;;;;;;;1.96;100.00;162920.44;4972322;28;20086;-68
2022/01/20 05:14:21;;;;;;;1999.90;999.90;;;;;;;1.99;100.00;162928.66;4970756;28;20432;-68
2022/01/20 05:16:48;;;;;;;1999.90;999.90;;;;;;;2.00;100.00;162931.41;4966572;28;20086;-68
2022/01/20 05:19:14;;;;;;;1999.90;999.90;;;;;;;2.09;100.00;162956.03;4969709;28;20098;-67
2022/01/20 05:21:40;;;;;;;1999.90;999.90;;;;;;;2.05;99.76;162943.72;4968479;28;20428;-68
2022/01/20 05:24:07;;;;;;;1999.90;999.90;;;;;;;2.08;99.95;162951.94;4970242;28;20464;-68
2022/01/20 05:26:33;;;;;;;1999.90;999.90;;;;;;;2.21;99.44;162986.19;4969802;28;20448;-68
2022/01/20 05:29:00;;;;;;;1999.90;999.90;;;;;;;2.08;99.94;162953.31;4969320;28;20078;-68
2022/01/20 05:31:26;;;;;;;1999.90;999.90;;;;;;;2.11;99.88;162960.13;4970415;28;20522;-68
2022/01/20 05:33:53;;;;;;;1999.90;999.90;;;;;;;2.21;99.95;162986.19;4970925;28;20082;-67
2022/01/20 05:36:21;;;;;;;1999.90;999.90;;;;;;;2.31;99.46;163012.16;4969851;28;20403;-67
2022/01/20 05:38:47;;;;;;;1999.90;999.90;;;;;;;2.08;99.77;162951.94;4971849;28;20313;-67
2022/01/20 05:41:14;;;;;;;1999.90;999.90;;;;;;;2.13;100.00;162965.66;4972090;28;20074;-67
2022/01/20 05:43:40;;;;;;;1999.90;999.90;;;;;;;2.16;100.00;162972.47;4970103;28;20074;-67
2022/01/20 05:46:08;;;;;;;1999.90;999.90;;;;;;;2.21;100.00;162986.19;4970466;28;20063;-68
2022/01/20 05:48:36;;;;;;;1999.90;999.90;;;;;;;2.10;100.00;162958.78;4971691;28;20391;-68
2022/01/20 05:51:04;;;;;;;1999.90;999.90;;;;;;;2.34;99.67;163021.78;4968552;28;20055;-67
2022/01/20 05:53:32;;;;;;;1999.90;999.90;;;;;;;2.66;98.05;163106.69;4969731;28;20082;-67
2022/01/20 05:55:59;;;;;;;1999.90;999.90;;;;;;;2.60;98.00;163090.25;4977465;28;20054;-68
2022/01/20 05:58:25;;;;;;;1999.90;999.90;;;;;;;2.54;98.96;163073.81;4969426;28;20086;-67
2022/01/20 06:00:52;;;;;;;1999.90;999.90;;;;;;;2.35;99.46;163024.50;4968817;28;20118;-67
2022/01/20 06:03:37;;;;;;;1999.90;999.90;;;;;;;2.49;99.25;163060.09;4971141;28;20046;-67
2022/01/20 06:06:08;;;;;;;1999.90;999.90;;;;;;;2.54;98.78;163073.81;4970579;28;20047;-67
2022/01/20 06:08:36;;;;;;;1999.90;999.90;;;;;;;2.51;99.29;163066.97;4963587;28;20066;-68
2022/01/20 06:11:03;;;;;;;1999.90;999.90;;;;;;;2.04;100.00;162940.97;4970496;28;20055;-68
2022/01/20 06:13:30;;;;;;;1999.90;999.90;;;;;;;1.88;100.00;162898.56;4970972;28;20089;-68
2022/01/20 06:15:57;;;;;;;1999.90;999.90;;;;;;;1.96;100.00;162920.44;4968815;28;20512;-68
2022/01/20 06:18:24;;;;;;;1999.90;999.90;;;;;;;1.82;100.00;162883.50;4971324;28;20498;-68
2022/01/20 06:20:52;;;;;;;1999.90;999.90;;;;;;;2.05;100.00;162943.72;4970041;28;20085;-68
2022/01/20 06:23:19;;;;;;;1999.90;999.90;;;;;;;2.16;100.00;162973.88;4970053;28;20050;-67
2022/01/20 06:25:46;;;;;;;1999.90;999.90;;;;;;;1.95;100.00;162917.72;4966377;28;20120;-68
2022/01/20 06:28:13;;;;;;;1999.90;999.90;;;;;;;1.85;100.00;162890.34;4970712;28;20046;-68
2022/01/20 06:30:45;;;;;;;1999.90;999.90;;;;;;;1.84;100.00;162887.59;4969481;28;20054;-68
2022/01/20 06:33:12;;;;;;;1999.90;999.90;;;;;;;1.64;100.00;162834.19;4970744;28;20051;-68
2022/01/20 06:35:39;;;;;;;1999.90;999.90;;;;;;;1.74;100.00;162862.97;4971071;28;20116;-68
2022/01/20 06:38:06;;;;;;;1999.90;999.90;;;;;;;1.58;100.00;162820.50;4969988;28;20074;-68
2022/01/20 06:40:33;;;;;;;1999.90;999.90;;;;;;;1.83;100.00;162886.25;4970426;28;20066;-68
2022/01/20 06:42:59;;;;;;;1999.90;999.90;;;;;;;1.77;100.00;162869.78;4970469;28;20327;-68
2022/01/20 06:45:26;;;;;;;1999.90;999.90;;;;;;;1.85;100.00;162890.34;4969071;28;20309;-68
2022/01/20 06:47:53;;;;;;;1999.90;999.90;;;;;;;1.85;100.00;162891.69;4969629;28;20435;-68
2022/01/20 06:50:19;;;;;;;1999.90;999.90;;;;;;;1.71;100.00;162854.75;4970541;28;20145;-69
2022/01/20 06:52:46;;;;;;;1999.90;999.90;;;;;;;1.67;100.00;162842.44;4970455;28;20344;-68
2022/01/20 06:55:14;;;;;;;1999.90;999.90;;;;;;;1.54;100.00;162809.56;4970307;28;20134;-68
2022/01/20 06:57:41;;;;;;;1999.90;999.90;;;;;;;1.79;100.00;162873.88;4970140;28;20061;-68
2022/01/20 07:00:12;;;;;;;1999.90;999.90;;;;;;;1.73;100.00;162860.22;4971237;28;20059;-69
2022/01/20 07:02:39;;;;;;;1999.90;999.90;;;;;;;1.55;100.00;162812.31;5000672;28;20226;-69
2022/01/20 07:05:07;;;;;;;1999.90;999.90;;;;;;;1.47;100.00;162790.38;4970905;28;20047;-69
2022/01/20 07:07:33;;;;;;;1999.90;999.90;;;;;;;1.51;100.00;162800.00;4969901;28;20466;-69
2022/01/20 07:10:00;;;;;;;1999.90;999.90;;;;;;;1.46;100.00;162786.28;4970141;28;20109;-68
2022/01/20 07:12:26;;;;;;;1999.90;999.90;;;;;;;1.67;100.00;162842.44;4970324;28;20440;-68
2022/01/20 07:14:53;;;;;;;1999.90;999.90;;;;;;;1.56;100.00;162813.66;4974441;28;20081;-68
2022/01/20 07:17:19;;;;;;;1999.90;999.90;;;;;;;1.66;100.00;162841.03;4974838;28;20046;-68
2022/01/20 07:19:46;;;;;;;1999.90;999.90;;;;;;;1.45;100.00;162784.94;4970550;28;20050;-68
2022/01/20 07:22:12;;;;;;;1999.90;999.90;;;;;;;1.56;100.00;162813.66;4968807;28;20135;-69
2022/01/20 07:24:39;;;;;;;1999.90;999.90;;;;;;;1.37;100.00;162764.41;4969291;28;20046;-68
2022/01/20 07:27:05;;;;;;;1999.90;999.90;;;;;;;1.82;100.00;162882.13;4970290;28;20129;-68
2022/01/20 07:29:32;;;;;;;1999.90;999.90;;;;;;;1.79;100.00;162873.88;4971361;28;20098;-68
2022/01/20 07:31:59;;;;;;;1999.90;999.90;;;;;;;1.69;100.00;162849.25;4969574;28;20096;-68
2022/01/20 07:34:26;;;;;;;1999.90;999.90;;;;;;;1.77;100.00;162869.78;4970100;28;20130;-68
2022/01/20 07:36:52;;;;;;;1999.90;999.90;;;;;;;1.71;100.00;162854.75;4967631;28;20455;-68
2022/01/20 07:39:19;;;;;;;1999.90;999.90;;;;;;;1.56;100.00;162815.06;4970121;28;20443;-68
2022/01/20 07:41:45;;;;;;;1999.90;999.90;;;;;;;1.56;100.00;162813.66;4970071;28;20059;-68
2022/01/20 07:44:12;;;;;;;1999.90;999.90;;;;;;;1.73;100.00;162858.88;4967903;28;20051;-68
2022/01/20 07:46:38;;;;;;;1999.90;999.90;;;;;;;1.84;100.00;162887.59;4967893;28;20089;-68
2022/01/20 07:49:05;;;;;;;1999.90;999.90;;;;;;;1.94;100.00;162916.31;4968913;28;20051;-68
2022/01/20 07:51:32;;;;;;;1999.90;999.90;;;;;;;1.97;100.00;162923.19;4967663;28;20434;-68
2022/01/20 07:53:58;;;;;;;1999.90;999.90;;;;;;;1.85;100.00;162891.69;4968843;28;20090;-69
2022/01/20 07:56:25;;;;;;;1999.90;999.90;;;;;;;1.67;100.00;162842.44;4969686;28;20050;-68
2022/01/20 07:58:51;;;;;;;1999.90;999.90;;;;;;;1.95;100.00;162917.72;4968755;28;20266;-67
2022/01/20 08:01:18;;;;;;;1999.90;999.90;;;;;;;2.10;100.00;162958.78;4960397;28;20431;-68
2022/01/20 08:03:44;;;;;;;1999.90;999.90;;;;;;;1.95;100.00;162917.72;4968341;28;20383;-68
2022/01/20 08:06:11;;;;;;;1999.90;999.90;;;;;;;1.95;100.00;162917.72;4968319;28;20349;-68
2022/01/20 08:08:37;;;;;;;1999.90;999.90;;;;;;;1.94;100.00;162914.97;4965867;28;20082;-68
2022/01/20 08:11:04;;;;;;;1999.90;999.90;;;;;;;1.97;100.00;162923.19;4967994;28;20050;-68
2022/01/20 08:13:30;;;;;;;1999.90;999.90;;;;;;;1.71;100.00;162854.75;4971591;28;20082;-68
2022/01/20 08:15:57;;;;;;;1999.90;999.90;;;;;;;1.70;100.00;162850.66;4974228;28;20447;-68
2022/01/20 08:18:23;;;;;;;1999.90;999.90;;;;;;;2.18;100.00;162977.97;4972056;28;20059;-68
2022/01/20 08:20:50;;;;;;;1999.90;999.90;;;;;;;2.18;100.00;162979.31;4971406;28;20058;-68
2022/01/20 08:23:16;;;;;;;1999.90;999.90;;;;;;;2.17;100.00;162975.22;4971252;28;20051;-67
2022/01/20 08:25:43;;;;;;;1999.90;999.90;;;;;;;2.38;100.00;163031.34;4972553;28;20428;-68
2022/01/20 08:28:10;;;;;;;1999.90;999.90;;;;;;;2.20;100.00;162984.78;4979026;28;20694;-68
2022/01/20 08:30:36;;;;;;;1999.90;999.90;;;;;;;2.50;100.00;163062.84;4970671;28;20109;-68
2022/01/20 08:33:03;;;;;;;1999.90;999.90;;;;;;;2.98;100.00;163191.66;4972066;28;20078;-68
2022/01/20 08:35:32;;;;;;;1999.90;999.90;;;;;;;2.86;100.00;163158.72;4971741;28;20093;-68
2022/01/20 08:38:00;;;;;;;1999.90;999.90;;;;;;;3.00;100.00;163197.09;4970855;28;20125;-68
2022/01/20 08:40:27;;;;;;;1999.90;999.90;;;;;;;2.73;100.00;163125.88;4963043;28;20095;-68
2022/01/20 08:42:56;;;;;;;1999.90;999.90;;;;;;;2.63;100.00;163098.47;4974837;28;20046;-68
2022/01/20 08:45:26;;;;;;;1999.90;999.90;;;;;;;2.71;100.00;163120.41;4974006;28;20104;-68
2022/01/20 08:47:55;;;;;;;1999.90;999.90;;;;;;;2.91;100.00;163172.47;4970931;28;20078;-69
2022/01/20 08:50:25;;;;;;;1999.90;999.90;;;;;;;2.71;100.00;163120.41;4971767;28;20062;-70
2022/01/20 08:52:53;;;;;;;1999.90;999.90;;;;;;;2.62;100.00;163097.09;4970654;28;20385;-69
2022/01/20 08:55:20;;;;;;;1999.90;999.90;;;;;;;2.79;100.00;163142.28;4971153;28;20080;-70
2022/01/20 08:57:46;;;;;;;1999.90;999.90;;;;;;;2.93;100.00;163177.91;4973666;28;20102;-67
2022/01/20 09:00:15;;;;;;;1999.90;999.90;;;;;;;2.97;100.00;163190.25;4970443;28;20462;-68
2022/01/20 09:02:41;;;;;;;1999.90;999.90;;;;;;;2.97;98.40;163188.88;4970296;28;20078;-68
2022/01/20 09:05:08;;;;;;;1999.90;999.90;;;;;;;2.96;97.22;163186.13;4973805;28;20078;-69
2022/01/20 09:07:35;;;;;;;1999.90;999.90;;;;;;;3.03;95.03;163205.31;4970510;28;20050;-70
2022/01/20 09:10:07;;;;;;;1999.90;999.90;;;;;;;3.14;94.33;163234.09;4970921;28;20219;-69
2022/01/20 09:17:49;;;;;;;1999.90;999.90;;;;;;;3.58;87.48;163350.59;4970535;28;20371;-69
2022/01/20 09:20:16;;;;;;;1999.90;999.90;;;;;;;3.61;85.61;163360.19;4971728;28;20089;-69
2022/01/20 09:22:42;;;;;;;1999.90;999.90;;;;;;;3.60;85.33;163357.41;4970432;28;20046;-69
2022/01/20 09:25:09;;;;;;;1999.90;999.90;;;;;;;3.48;83.94;163325.94;4969384;28;20321;-69
2022/01/20 09:27:36;;;;;;;1999.90;999.90;;;;;;;3.83;82.80;163419.13;4975531;28;20046;-69
2022/01/20 09:30:04;;;;;;;1999.90;999.90;;;;;;;4.03;81.47;163472.63;4971334;28;20372;-69
2022/01/20 09:32:35;;;;;;;1999.90;999.90;;;;;;;3.53;82.59;163339.63;4969968;28;20047;-68
2022/01/20 09:35:02;;;;;;;1999.90;999.90;;;;;;;3.38;82.54;163297.13;4971066;28;20584;-68
2022/01/20 09:37:28;;;;;;;1999.90;999.90;;;;;;;3.24;82.89;163261.50;4971681;28;20710;-68
2022/01/20 09:39:56;;;;;;;1999.90;999.90;;;;;;;2.96;82.54;163186.13;4971373;28;20058;-68
2022/01/20 09:42:24;;;;;;;1999.90;999.90;;;;;;;3.05;81.76;163210.84;4970848;28;20340;-68
2022/01/20 09:44:53;;;;;;;1999.90;999.90;;;;;;;3.06;82.07;163213.53;4970945;28;20114;-69
2022/01/20 09:47:20;;;;;;;1999.90;999.90;;;;;;;3.06;81.40;163212.19;4969442;28;20047;-68
2022/01/20 09:49:46;;;;;;;1999.90;999.90;;;;;;;3.17;81.52;163243.72;4970899;28;20138;-68
2022/01/20 09:52:13;;;;;;;1999.90;999.90;;;;;;;3.15;81.61;163238.19;4970908;28;20113;-68
2022/01/20 09:54:40;;;;;;;1999.90;999.90;;;;;;;2.99;80.92;163194.34;4969095;28;20043;-69
2022/01/20 09:57:07;;;;;;;1999.90;999.90;;;;;;;3.00;80.73;163197.09;4970408;28;20439;-68
2022/01/20 09:59:33;;;;;;;1999.90;999.90;;;;;;;2.81;81.04;163146.41;4971512;28;20443;-68
2022/01/20 10:02:01;;;;;;;1999.90;999.90;;;;;;;2.66;80.32;163106.69;4969314;28;20125;-68
2022/01/20 10:04:33;;;;;;;1999.90;999.90;;;;;;;2.77;79.96;163136.84;4970675;28;20175;-69
2022/01/20 10:07:06;;;;;;;1999.90;999.90;;;;;;;2.73;78.92;163125.88;4970737;28;20498;-68
2022/01/20 10:09:39;;;;;;;1999.90;999.90;;;;;;;2.71;79.17;163120.41;4971130;28;20107;-68
2022/01/20 10:12:08;;;;;;;1999.90;999.90;;;;;;;2.56;79.64;163079.28;4970716;28;20266;-68
2022/01/20 10:14:48;;;;;;;1999.90;999.90;;;;;;;2.64;79.71;163102.56;4970583;28;20377;-69
2022/01/20 10:17:20;;;;;;;1999.90;999.90;;;;;;;2.77;79.77;163136.84;4970558;28;20054;-69
2022/01/20 10:19:51;;;;;;;1999.90;999.90;;;;;;;2.67;80.93;163109.44;4970410;28;20054;-68
2022/01/20 10:22:23;;;;;;;1999.90;999.90;;;;;;;2.84;80.33;163154.63;4969711;28;20439;-68
2022/01/20 10:24:57;;;;;;;1999.90;999.90;;;;;;;2.77;81.10;163136.84;4971658;28;20051;-68
2022/01/20 10:27:24;;;;;;;1999.90;999.90;;;;;;;2.61;81.80;163094.34;4970668;28;20086;-68
2022/01/20 10:29:56;;;;;;;1999.90;999.90;;;;;;;2.52;82.57;163068.38;4969814;28;20089;-68
2022/01/20 10:32:24;;;;;;;1999.90;999.90;;;;;;;2.57;83.22;163083.38;4971785;28;20055;-68
2022/01/20 10:35:02;;;;;;;1999.90;999.90;;;;;;;2.81;83.04;163147.81;4969050;28;20150;-68
2022/01/20 10:37:28;;;;;;;1999.90;999.90;;;;;;;2.81;83.73;163146.41;4969022;28;20113;-68
2022/01/20 10:40:05;;;;;;;1999.90;999.90;;;;;;;2.69;85.28;163114.91;4981051;28;20437;-68
2022/01/20 10:42:38;;;;;;;1999.90;999.90;;;;;;;2.32;88.49;163016.28;4969660;28;20271;-68
2022/01/20 10:45:05;;;;;;;1999.90;999.90;;;;;;;2.23;91.12;162991.63;4970704;28;20151;-67
2022/01/20 10:47:34;;;;;;;1999.90;999.90;;;;;;;0.30;100.00;162479.88;4980159;28;20516;-68
2022/01/20 10:50:13;;;;;;;1999.90;999.90;;;;;;;-0.75;100.00;162199.66;4970255;28;20440;-67
2022/01/20 10:52:44;;;;;;;1999.90;999.90;;;;;;;-1.11;100.00;162105.38;4969777;28;20084;-67
2022/01/20 10:55:22;;;;;;;1999.90;999.90;;;;;;;-1.07;100.00;162116.31;4969944;28;20043;-67
2022/01/20 10:57:56;;;;;;;1999.90;999.90;;;;;;;-1.08;100.00;162113.56;4971258;28;20109;-67
2022/01/20 11:00:25;;;;;;;1999.90;999.90;;;;;;;-0.93;100.00;162153.19;4969761;28;20087;-68
2022/01/20 11:02:55;;;;;;;1999.90;999.90;;;;;;;-0.87;100.00;162168.22;4969428;28;20495;-68
2022/01/20 11:05:23;;;;;;;1999.90;999.90;;;;;;;-0.66;100.00;162222.88;4971017;28;20359;-67
2022/01/20 11:07:51;;;;;;;1999.90;999.90;;;;;;;-0.72;100.00;162209.19;4970146;28;20349;-68
2022/01/20 11:10:20;;;;;;;1999.90;999.90;;;;;;;-0.52;100.00;162261.16;4969470;28;20051;-68
2022/01/20 11:12:47;;;;;;;1999.90;999.90;;;;;;;-0.45;100.00;162278.91;4970414;28;20399;-68
2022/01/20 11:15:16;;;;;;;1999.90;999.90;;;;;;;-0.09;100.00;162374.56;4969103;28;20109;-67
2022/01/20 11:17:49;;;;;;;1999.90;999.90;;;;;;;-0.22;100.00;162340.44;4968745;28;20486;-67
2022/01/20 11:20:22;;;;;;;1999.90;999.90;;;;;;;-0.45;100.00;162280.25;4970078;28;20517;-67
2022/01/20 11:23:07;;;;;;;1999.90;999.90;;;;;;;-0.37;100.00;162302.16;4974027;28;20118;-67
2022/01/20 11:25:36;;;;;;;1999.90;999.90;;;;;;;-0.43;100.00;162284.34;4972339;28;20050;-68
2022/01/20 11:28:09;;;;;;;1999.90;999.90;;;;;;;-0.34;100.00;162307.59;4971629;28;20077;-68
2022/01/20 11:30:42;;;;;;;1999.90;999.90;;;;;;;-0.48;100.00;162272.06;4970707;28;20355;-68
2022/01/20 11:33:15;;;;;;;1999.90;999.90;;;;;;;-0.24;100.00;162334.94;4973925;28;20149;-68
2022/01/20 11:35:49;;;;;;;1999.90;999.90;;;;;;;-0.13;100.00;162365.03;4969358;28;20143;-68
2022/01/20 11:38:19;;;;;;;1999.90;999.90;;;;;;;0.03;100.00;162406.00;4969311;28;20077;-68
2022/01/20 11:40:58;;;;;;;1999.90;999.90;;;;;;;0.05;100.00;162412.88;4970012;28;20105;-68
2022/01/20 11:43:43;;;;;;;1999.90;999.90;;;;;;;-0.07;100.00;162381.41;4964183;28;20051;-67
2022/01/20 11:46:13;;;;;;;1999.90;999.90;;;;;;;-0.50;100.00;162266.59;4969491;28;20275;-67
2022/01/20 11:48:54;;;;;;;1999.90;999.90;;;;;;;-0.54;100.00;162255.66;4969377;28;20049;-67
2022/01/20 11:51:22;;;;;;;1999.90;999.90;;;;;;;-0.78;100.00;162191.44;4969330;28;20106;-67
2022/01/20 11:54:26;;;;;;;1999.90;999.90;;;;;;;-0.61;100.00;162236.53;4969017;28;20383;-68
2022/01/20 11:57:13;;;;;;;1999.90;999.90;;;;;;;-0.71;100.00;162211.94;4962009;28;20091;-68
2022/01/20 11:59:56;;;;;;;1999.90;999.90;;;;;;;-0.80;100.00;162186.00;4970125;28;20055;-68
2022/01/20 12:02:25;;;;;;;1999.90;999.90;;;;;;;-0.53;99.27;162258.41;4970061;28;20058;-68
2022/01/20 12:04:52;;;;;;;1999.90;999.90;;;;;;;-0.67;96.31;162220.13;4968623;28;20078;-68